sensor_id;sensor_type;location;lat;lon;timestamp;P1;durP1;ratioP1;P2;durP2;ratioP2
83807;SDS011;73824;40.292;17.998;2024-02-21T00:01:35;36.30;;;18.43;;
83807;SDS011;73824;40.292;17.998;2024-02-21T00:04:01;41.03;;;19.13;;
83807;SDS011;73824;40.292;17.998;2024-02-21T00:06:27;37.20;;;17.83;;
83807;SDS011;73824;40.292;17.998;2024-02-21T00:08:53;38.47;;;17.42;;
83807;SDS011;73824;40.292;17.998;2024-02-21T00:11:19;36.80;;;16.90;;
83807;SDS011;73824;40.292;17.998;2024-02-21T00:13:45;41.63;;;18.95;;
83807;SDS011;73824;40.292;17.998;2024-02-21T00:16:10;36.97;;;17.17;;
83807;SDS011;73824;40.292;17.998;2024-02-21T00:18:36;40.27;;;18.63;;
83807;SDS011;73824;40.292;17.998;2024-02-21T00:21:02;34.77;;;17.37;;
83807;SDS011;73824;40.292;17.998;2024-02-21T00:23:28;39.38;;;16.85;;
83807;SDS011;73824;40.292;17.998;2024-02-21T00:25:53;39.85;;;17.95;;
83807;SDS011;73824;40.292;17.998;2024-02-21T00:28:19;33.07;;;16.60;;
83807;SDS011;73824;40.292;17.998;2024-02-21T00:30:45;36.23;;;17.17;;
83807;SDS011;73824;40.292;17.998;2024-02-21T00:33:13;31.27;;;15.52;;
83807;SDS011;73824;40.292;17.998;2024-02-21T00:35:38;36.20;;;16.33;;
83807;SDS011;73824;40.292;17.998;2024-02-21T00:38:04;33.93;;;17.37;;
83807;SDS011;73824;40.292;17.998;2024-02-21T00:40:30;34.60;;;16.40;;
83807;SDS011;73824;40.292;17.998;2024-02-21T00:42:55;35.47;;;15.93;;
83807;SDS011;73824;40.292;17.998;2024-02-21T00:45:21;31.33;;;14.70;;
83807;SDS011;73824;40.292;17.998;2024-02-21T00:47:46;31.60;;;14.93;;
83807;SDS011;73824;40.292;17.998;2024-02-21T00:50:12;31.13;;;14.40;;
83807;SDS011;73824;40.292;17.998;2024-02-21T00:52:37;34.00;;;15.57;;
83807;SDS011;73824;40.292;17.998;2024-02-21T00:55:03;29.80;;;13.70;;
83807;SDS011;73824;40.292;17.998;2024-02-21T00:57:29;28.37;;;14.27;;
83807;SDS011;73824;40.292;17.998;2024-02-21T00:59:55;31.80;;;15.50;;
83807;SDS011;73824;40.292;17.998;2024-02-21T01:02:20;30.13;;;14.57;;
83807;SDS011;73824;40.292;17.998;2024-02-21T01:04:46;30.33;;;14.60;;
83807;SDS011;73824;40.292;17.998;2024-02-21T01:07:11;34.00;;;16.23;;
83807;SDS011;73824;40.292;17.998;2024-02-21T01:09:37;29.02;;;14.32;;
83807;SDS011;73824;40.292;17.998;2024-02-21T01:12:02;30.13;;;14.47;;
83807;SDS011;73824;40.292;17.998;2024-02-21T01:14:28;31.27;;;14.18;;
83807;SDS011;73824;40.292;17.998;2024-02-21T01:16:54;28.92;;;13.55;;
83807;SDS011;73824;40.292;17.998;2024-02-21T01:19:19;30.53;;;13.73;;
83807;SDS011;73824;40.292;17.998;2024-02-21T01:21:45;29.27;;;13.33;;
83807;SDS011;73824;40.292;17.998;2024-02-21T01:24:10;26.70;;;12.70;;
83807;SDS011;73824;40.292;17.998;2024-02-21T01:26:36;29.63;;;12.23;;
83807;SDS011;73824;40.292;17.998;2024-02-21T01:29:01;30.03;;;13.47;;
83807;SDS011;73824;40.292;17.998;2024-02-21T01:31:27;27.33;;;12.13;;
83807;SDS011;73824;40.292;17.998;2024-02-21T01:33:52;25.05;;;12.40;;
83807;SDS011;73824;40.292;17.998;2024-02-21T01:36:17;22.45;;;11.20;;
83807;SDS011;73824;40.292;17.998;2024-02-21T01:38:43;26.47;;;12.50;;
83807;SDS011;73824;40.292;17.998;2024-02-21T01:41:09;25.17;;;11.90;;
83807;SDS011;73824;40.292;17.998;2024-02-21T01:43:34;26.05;;;11.25;;
83807;SDS011;73824;40.292;17.998;2024-02-21T01:46:00;26.70;;;11.50;;
83807;SDS011;73824;40.292;17.998;2024-02-21T01:48:26;24.83;;;11.50;;
83807;SDS011;73824;40.292;17.998;2024-02-21T01:50:52;22.17;;;11.20;;
83807;SDS011;73824;40.292;17.998;2024-02-21T01:53:23;24.42;;;11.32;;
83807;SDS011;73824;40.292;17.998;2024-02-21T01:55:52;25.90;;;10.93;;
83807;SDS011;73824;40.292;17.998;2024-02-21T01:58:18;24.27;;;10.73;;
83807;SDS011;73824;40.292;17.998;2024-02-21T02:00:45;24.83;;;11.03;;
83807;SDS011;73824;40.292;17.998;2024-02-21T02:03:13;21.80;;;10.20;;
83807;SDS011;73824;40.292;17.998;2024-02-21T02:05:45;22.85;;;11.38;;
83807;SDS011;73824;40.292;17.998;2024-02-21T02:08:20;26.52;;;11.52;;
83807;SDS011;73824;40.292;17.998;2024-02-21T02:10:49;21.88;;;9.80;;
83807;SDS011;73824;40.292;17.998;2024-02-21T02:13:15;23.90;;;10.93;;
83807;SDS011;73824;40.292;17.998;2024-02-21T02:15:41;24.00;;;11.43;;
83807;SDS011;73824;40.292;17.998;2024-02-21T02:18:07;22.48;;;11.15;;
83807;SDS011;73824;40.292;17.998;2024-02-21T02:20:33;23.20;;;10.52;;
83807;SDS011;73824;40.292;17.998;2024-02-21T02:23:00;23.70;;;11.23;;
83807;SDS011;73824;40.292;17.998;2024-02-21T02:25:45;27.23;;;12.30;;
83807;SDS011;73824;40.292;17.998;2024-02-21T02:28:14;23.73;;;11.50;;
83807;SDS011;73824;40.292;17.998;2024-02-21T02:30:40;28.83;;;12.68;;
83807;SDS011;73824;40.292;17.998;2024-02-21T02:33:06;23.63;;;12.15;;
83807;SDS011;73824;40.292;17.998;2024-02-21T02:35:31;28.27;;;12.83;;
83807;SDS011;73824;40.292;17.998;2024-02-21T02:37:57;24.10;;;12.52;;
83807;SDS011;73824;40.292;17.998;2024-02-21T02:40:23;24.20;;;11.90;;
83807;SDS011;73824;40.292;17.998;2024-02-21T02:42:49;25.40;;;12.70;;
83807;SDS011;73824;40.292;17.998;2024-02-21T02:45:16;25.52;;;12.15;;
83807;SDS011;73824;40.292;17.998;2024-02-21T02:47:44;28.08;;;12.40;;
83807;SDS011;73824;40.292;17.998;2024-02-21T02:50:11;23.73;;;11.57;;
83807;SDS011;73824;40.292;17.998;2024-02-21T02:52:36;23.17;;;11.73;;
83807;SDS011;73824;40.292;17.998;2024-02-21T02:55:02;26.13;;;12.13;;
83807;SDS011;73824;40.292;17.998;2024-02-21T02:57:28;23.17;;;11.48;;
83807;SDS011;73824;40.292;17.998;2024-02-21T02:59:54;26.75;;;12.50;;
83807;SDS011;73824;40.292;17.998;2024-02-21T03:02:20;24.83;;;11.63;;
83807;SDS011;73824;40.292;17.998;2024-02-21T03:04:45;26.23;;;11.70;;
83807;SDS011;73824;40.292;17.998;2024-02-21T03:07:11;27.00;;;12.43;;
83807;SDS011;73824;40.292;17.998;2024-02-21T03:09:40;26.13;;;12.33;;
83807;SDS011;73824;40.292;17.998;2024-02-21T03:12:07;27.85;;;13.13;;
83807;SDS011;73824;40.292;17.998;2024-02-21T03:14:34;27.38;;;12.23;;
83807;SDS011;73824;40.292;17.998;2024-02-21T03:17:00;28.70;;;13.05;;
83807;SDS011;73824;40.292;17.998;2024-02-21T03:19:27;29.30;;;13.10;;
83807;SDS011;73824;40.292;17.998;2024-02-21T03:21:53;27.00;;;12.88;;
83807;SDS011;73824;40.292;17.998;2024-02-21T03:24:19;28.63;;;12.70;;
83807;SDS011;73824;40.292;17.998;2024-02-21T03:26:45;28.73;;;13.40;;
83807;SDS011;73824;40.292;17.998;2024-02-21T03:29:19;33.03;;;13.13;;
83807;SDS011;73824;40.292;17.998;2024-02-21T03:31:45;28.70;;;12.88;;
83807;SDS011;73824;40.292;17.998;2024-02-21T03:34:10;28.53;;;13.07;;
83807;SDS011;73824;40.292;17.998;2024-02-21T03:36:36;25.00;;;12.00;;
83807;SDS011;73824;40.292;17.998;2024-02-21T03:39:02;25.95;;;11.88;;
83807;SDS011;73824;40.292;17.998;2024-02-21T03:41:28;24.10;;;11.93;;
83807;SDS011;73824;40.292;17.998;2024-02-21T03:43:54;27.05;;;12.15;;
83807;SDS011;73824;40.292;17.998;2024-02-21T03:46:19;26.83;;;11.73;;
83807;SDS011;73824;40.292;17.998;2024-02-21T03:48:45;27.40;;;11.77;;
83807;SDS011;73824;40.292;17.998;2024-02-21T03:51:11;24.65;;;11.60;;
83807;SDS011;73824;40.292;17.998;2024-02-21T03:53:36;23.50;;;11.10;;
83807;SDS011;73824;40.292;17.998;2024-02-21T03:56:02;27.83;;;12.10;;
83807;SDS011;73824;40.292;17.998;2024-02-21T03:58:29;26.75;;;11.85;;
83807;SDS011;73824;40.292;17.998;2024-02-21T04:00:55;25.23;;;11.40;;
83807;SDS011;73824;40.292;17.998;2024-02-21T04:03:21;24.83;;;11.33;;
83807;SDS011;73824;40.292;17.998;2024-02-21T04:05:46;25.67;;;10.73;;
83807;SDS011;73824;40.292;17.998;2024-02-21T04:08:15;26.65;;;11.02;;
83807;SDS011;73824;40.292;17.998;2024-02-21T04:10:41;23.55;;;10.55;;
83807;SDS011;73824;40.292;17.998;2024-02-21T04:13:07;22.85;;;11.43;;
83807;SDS011;73824;40.292;17.998;2024-02-21T04:15:32;23.97;;;10.67;;
83807;SDS011;73824;40.292;17.998;2024-02-21T04:17:58;25.65;;;11.80;;
83807;SDS011;73824;40.292;17.998;2024-02-21T04:20:23;28.13;;;11.83;;
83807;SDS011;73824;40.292;17.998;2024-02-21T04:22:49;23.60;;;10.88;;
83807;SDS011;73824;40.292;17.998;2024-02-21T04:25:15;22.90;;;10.20;;
83807;SDS011;73824;40.292;17.998;2024-02-21T04:27:40;27.47;;;11.37;;
83807;SDS011;73824;40.292;17.998;2024-02-21T04:30:07;22.65;;;10.10;;
83807;SDS011;73824;40.292;17.998;2024-02-21T04:32:33;24.38;;;11.23;;
83807;SDS011;73824;40.292;17.998;2024-02-21T04:34:59;27.30;;;11.02;;
83807;SDS011;73824;40.292;17.998;2024-02-21T04:37:24;25.67;;;10.93;;
83807;SDS011;73824;40.292;17.998;2024-02-21T04:39:50;29.40;;;11.87;;
83807;SDS011;73824;40.292;17.998;2024-02-21T04:42:16;27.27;;;11.35;;
83807;SDS011;73824;40.292;17.998;2024-02-21T04:44:41;25.70;;;11.50;;
83807;SDS011;73824;40.292;17.998;2024-02-21T04:47:07;30.87;;;11.70;;
83807;SDS011;73824;40.292;17.998;2024-02-21T04:49:33;26.23;;;11.20;;
83807;SDS011;73824;40.292;17.998;2024-02-21T04:51:59;27.33;;;11.43;;
83807;SDS011;73824;40.292;17.998;2024-02-21T04:54:24;24.87;;;10.77;;
83807;SDS011;73824;40.292;17.998;2024-02-21T04:56:50;24.23;;;10.93;;
83807;SDS011;73824;40.292;17.998;2024-02-21T04:59:16;24.38;;;10.50;;
83807;SDS011;73824;40.292;17.998;2024-02-21T05:01:42;25.55;;;11.25;;
83807;SDS011;73824;40.292;17.998;2024-02-21T05:04:07;25.27;;;11.30;;
83807;SDS011;73824;40.292;17.998;2024-02-21T05:06:37;29.00;;;13.13;;
83807;SDS011;73824;40.292;17.998;2024-02-21T05:09:07;27.40;;;12.87;;
83807;SDS011;73824;40.292;17.998;2024-02-21T05:11:36;30.33;;;12.93;;
83807;SDS011;73824;40.292;17.998;2024-02-21T05:14:03;30.38;;;13.48;;
83807;SDS011;73824;40.292;17.998;2024-02-21T05:16:29;27.25;;;12.73;;
83807;SDS011;73824;40.292;17.998;2024-02-21T05:18:55;30.45;;;14.07;;
83807;SDS011;73824;40.292;17.998;2024-02-21T05:21:22;27.30;;;12.80;;
83807;SDS011;73824;40.292;17.998;2024-02-21T05:23:49;29.40;;;12.93;;
83807;SDS011;73824;40.292;17.998;2024-02-21T05:26:24;31.65;;;13.98;;
83807;SDS011;73824;40.292;17.998;2024-02-21T05:28:50;30.52;;;13.30;;
83807;SDS011;73824;40.292;17.998;2024-02-21T05:31:17;27.83;;;12.88;;
83807;SDS011;73824;40.292;17.998;2024-02-21T05:33:43;29.13;;;13.38;;
83807;SDS011;73824;40.292;17.998;2024-02-21T05:36:09;34.15;;;13.50;;
83807;SDS011;73824;40.292;17.998;2024-02-21T05:38:35;36.20;;;16.00;;
83807;SDS011;73824;40.292;17.998;2024-02-21T05:41:01;41.30;;;16.93;;
83807;SDS011;73824;40.292;17.998;2024-02-21T05:43:26;32.35;;;15.15;;
83807;SDS011;73824;40.292;17.998;2024-02-21T05:45:52;28.33;;;13.23;;
83807;SDS011;73824;40.292;17.998;2024-02-21T05:48:17;34.47;;;16.70;;
83807;SDS011;73824;40.292;17.998;2024-02-21T05:50:43;32.95;;;15.82;;
83807;SDS011;73824;40.292;17.998;2024-02-21T05:53:08;27.70;;;14.27;;
83807;SDS011;73824;40.292;17.998;2024-02-21T05:55:35;28.85;;;13.25;;
83807;SDS011;73824;40.292;17.998;2024-02-21T05:58:01;29.47;;;13.13;;
83807;SDS011;73824;40.292;17.998;2024-02-21T06:00:27;30.65;;;13.45;;
83807;SDS011;73824;40.292;17.998;2024-02-21T06:02:53;31.13;;;14.15;;
83807;SDS011;73824;40.292;17.998;2024-02-21T06:05:18;32.77;;;15.47;;
83807;SDS011;73824;40.292;17.998;2024-02-21T06:07:44;31.58;;;15.95;;
83807;SDS011;73824;40.292;17.998;2024-02-21T06:10:10;33.07;;;14.87;;
83807;SDS011;73824;40.292;17.998;2024-02-21T06:12:35;30.60;;;15.10;;
83807;SDS011;73824;40.292;17.998;2024-02-21T06:15:01;33.50;;;15.50;;
83807;SDS011;73824;40.292;17.998;2024-02-21T06:17:26;31.02;;;15.35;;
83807;SDS011;73824;40.292;17.998;2024-02-21T06:19:51;36.73;;;16.23;;
83807;SDS011;73824;40.292;17.998;2024-02-21T06:22:17;33.60;;;15.90;;
83807;SDS011;73824;40.292;17.998;2024-02-21T06:24:42;37.53;;;15.87;;
83807;SDS011;73824;40.292;17.998;2024-02-21T06:27:08;35.00;;;15.73;;
83807;SDS011;73824;40.292;17.998;2024-02-21T06:29:35;31.55;;;15.55;;
83807;SDS011;73824;40.292;17.998;2024-02-21T06:32:01;34.03;;;15.23;;
83807;SDS011;73824;40.292;17.998;2024-02-21T06:34:26;29.00;;;14.85;;
83807;SDS011;73824;40.292;17.998;2024-02-21T06:36:52;37.97;;;16.63;;
83807;SDS011;73824;40.292;17.998;2024-02-21T06:39:17;31.40;;;15.00;;
83807;SDS011;73824;40.292;17.998;2024-02-21T06:41:43;35.13;;;15.82;;
83807;SDS011;73824;40.292;17.998;2024-02-21T06:44:09;33.80;;;15.77;;
83807;SDS011;73824;40.292;17.998;2024-02-21T06:46:34;29.63;;;15.27;;
83807;SDS011;73824;40.292;17.998;2024-02-21T06:49:00;30.73;;;13.40;;
83807;SDS011;73824;40.292;17.998;2024-02-21T06:51:27;27.08;;;12.50;;
83807;SDS011;73824;40.292;17.998;2024-02-21T06:53:53;21.90;;;11.87;;
83807;SDS011;73824;40.292;17.998;2024-02-21T06:56:18;21.42;;;11.82;;
83807;SDS011;73824;40.292;17.998;2024-02-21T06:58:44;23.80;;;12.07;;
83807;SDS011;73824;40.292;17.998;2024-02-21T07:01:10;20.60;;;11.57;;
83807;SDS011;73824;40.292;17.998;2024-02-21T07:03:36;21.77;;;11.87;;
83807;SDS011;73824;40.292;17.998;2024-02-21T07:06:01;20.30;;;11.50;;
83807;SDS011;73824;40.292;17.998;2024-02-21T07:08:27;19.95;;;11.93;;
83807;SDS011;73824;40.292;17.998;2024-02-21T07:10:53;19.17;;;10.63;;
83807;SDS011;73824;40.292;17.998;2024-02-21T07:13:18;20.37;;;11.30;;
83807;SDS011;73824;40.292;17.998;2024-02-21T07:15:44;22.35;;;11.10;;
83807;SDS011;73824;40.292;17.998;2024-02-21T07:18:10;18.07;;;11.70;;
83807;SDS011;73824;40.292;17.998;2024-02-21T07:20:35;20.27;;;11.87;;
83807;SDS011;73824;40.292;17.998;2024-02-21T07:23:06;23.25;;;12.45;;
83807;SDS011;73824;40.292;17.998;2024-02-21T07:25:32;21.65;;;12.68;;
83807;SDS011;73824;40.292;17.998;2024-02-21T07:27:57;19.30;;;13.60;;
83807;SDS011;73824;40.292;17.998;2024-02-21T07:30:23;20.60;;;12.75;;
83807;SDS011;73824;40.292;17.998;2024-02-21T07:32:49;20.77;;;12.73;;
83807;SDS011;73824;40.292;17.998;2024-02-21T07:35:15;18.50;;;12.10;;
83807;SDS011;73824;40.292;17.998;2024-02-21T07:37:42;18.63;;;12.98;;
83807;SDS011;73824;40.292;17.998;2024-02-21T07:40:17;18.63;;;13.63;;
83807;SDS011;73824;40.292;17.998;2024-02-21T07:42:43;19.90;;;12.63;;
83807;SDS011;73824;40.292;17.998;2024-02-21T07:45:09;20.45;;;13.43;;
83807;SDS011;73824;40.292;17.998;2024-02-21T07:47:36;18.60;;;12.05;;
83807;SDS011;73824;40.292;17.998;2024-02-21T07:50:04;18.95;;;11.75;;
83807;SDS011;73824;40.292;17.998;2024-02-21T07:52:31;20.65;;;12.85;;
83807;SDS011;73824;40.292;17.998;2024-02-21T07:54:56;19.40;;;13.20;;
83807;SDS011;73824;40.292;17.998;2024-02-21T07:57:22;19.23;;;13.18;;
83807;SDS011;73824;40.292;17.998;2024-02-21T07:59:48;21.70;;;13.10;;
83807;SDS011;73824;40.292;17.998;2024-02-21T08:02:14;19.83;;;12.85;;
83807;SDS011;73824;40.292;17.998;2024-02-21T08:04:39;22.75;;;13.40;;
83807;SDS011;73824;40.292;17.998;2024-02-21T08:07:05;19.03;;;12.53;;
83807;SDS011;73824;40.292;17.998;2024-02-21T08:09:30;19.03;;;13.83;;
83807;SDS011;73824;40.292;17.998;2024-02-21T08:11:56;19.25;;;13.80;;
83807;SDS011;73824;40.292;17.998;2024-02-21T08:14:22;21.60;;;13.83;;
83807;SDS011;73824;40.292;17.998;2024-02-21T08:16:49;26.38;;;15.75;;
83807;SDS011;73824;40.292;17.998;2024-02-21T08:19:18;21.60;;;14.57;;
83807;SDS011;73824;40.292;17.998;2024-02-21T08:21:44;19.90;;;14.10;;
83807;SDS011;73824;40.292;17.998;2024-02-21T08:24:12;19.17;;;14.13;;
83807;SDS011;73824;40.292;17.998;2024-02-21T08:26:41;22.92;;;16.70;;
83807;SDS011;73824;40.292;17.998;2024-02-21T08:29:07;25.02;;;17.45;;
83807;SDS011;73824;40.292;17.998;2024-02-21T08:31:33;24.77;;;18.00;;
83807;SDS011;73824;40.292;17.998;2024-02-21T08:33:59;24.38;;;16.52;;
83807;SDS011;73824;40.292;17.998;2024-02-21T08:36:35;30.73;;;19.52;;
83807;SDS011;73824;40.292;17.998;2024-02-21T08:39:01;19.10;;;13.75;;
83807;SDS011;73824;40.292;17.998;2024-02-21T08:41:34;17.52;;;12.35;;
83807;SDS011;73824;40.292;17.998;2024-02-21T08:44:00;24.08;;;15.73;;
83807;SDS011;73824;40.292;17.998;2024-02-21T08:46:26;26.52;;;17.85;;
83807;SDS011;73824;40.292;17.998;2024-02-21T08:48:52;20.25;;;13.13;;
83807;SDS011;73824;40.292;17.998;2024-02-21T08:51:18;22.23;;;15.25;;
83807;SDS011;73824;40.292;17.998;2024-02-21T08:53:48;21.60;;;14.48;;
83807;SDS011;73824;40.292;17.998;2024-02-21T08:56:13;22.20;;;15.57;;
83807;SDS011;73824;40.292;17.998;2024-02-21T08:58:40;20.02;;;11.93;;
83807;SDS011;73824;40.292;17.998;2024-02-21T09:01:06;25.60;;;19.20;;
83807;SDS011;73824;40.292;17.998;2024-02-21T09:03:36;17.42;;;12.57;;
83807;SDS011;73824;40.292;17.998;2024-02-21T09:06:02;23.67;;;14.60;;
83807;SDS011;73824;40.292;17.998;2024-02-21T09:08:29;18.48;;;11.52;;
83807;SDS011;73824;40.292;17.998;2024-02-21T09:10:55;18.80;;;12.83;;
83807;SDS011;73824;40.292;17.998;2024-02-21T09:13:20;17.63;;;11.50;;
83807;SDS011;73824;40.292;17.998;2024-02-21T09:15:47;15.57;;;10.53;;
83807;SDS011;73824;40.292;17.998;2024-02-21T09:18:13;20.10;;;10.48;;
83807;SDS011;73824;40.292;17.998;2024-02-21T09:20:38;18.10;;;12.70;;
83807;SDS011;73824;40.292;17.998;2024-02-21T09:23:04;17.87;;;11.30;;
83807;SDS011;73824;40.292;17.998;2024-02-21T09:25:29;23.33;;;11.07;;
83807;SDS011;73824;40.292;17.998;2024-02-21T09:27:55;18.17;;;11.10;;
83807;SDS011;73824;40.292;17.998;2024-02-21T09:30:22;16.75;;;11.30;;
83807;SDS011;73824;40.292;17.998;2024-02-21T09:32:47;16.77;;;11.10;;
83807;SDS011;73824;40.292;17.998;2024-02-21T09:35:13;16.08;;;10.82;;
83807;SDS011;73824;40.292;17.998;2024-02-21T09:37:39;14.53;;;9.07;;
83807;SDS011;73824;40.292;17.998;2024-02-21T09:40:05;19.05;;;10.57;;
83807;SDS011;73824;40.292;17.998;2024-02-21T09:42:36;29.92;;;13.55;;
83807;SDS011;73824;40.292;17.998;2024-02-21T09:45:25;20.37;;;13.30;;
83807;SDS011;73824;40.292;17.998;2024-02-21T09:50:34;19.23;;;11.70;;
83807;SDS011;73824;40.292;17.998;2024-02-21T09:53:01;17.00;;;10.77;;
83807;SDS011;73824;40.292;17.998;2024-02-21T09:55:28;15.55;;;9.68;;
83807;SDS011;73824;40.292;17.998;2024-02-21T09:57:57;22.83;;;9.63;;
83807;SDS011;73824;40.292;17.998;2024-02-21T10:00:24;15.93;;;9.02;;
83807;SDS011;73824;40.292;17.998;2024-02-21T10:02:50;21.08;;;10.98;;
83807;SDS011;73824;40.292;17.998;2024-02-21T10:05:16;15.57;;;9.90;;
83807;SDS011;73824;40.292;17.998;2024-02-21T10:07:42;14.82;;;9.70;;
83807;SDS011;73824;40.292;17.998;2024-02-21T10:10:09;15.45;;;9.90;;
83807;SDS011;73824;40.292;17.998;2024-02-21T10:12:35;18.30;;;10.80;;
83807;SDS011;73824;40.292;17.998;2024-02-21T10:15:04;19.00;;;10.80;;
83807;SDS011;73824;40.292;17.998;2024-02-21T10:17:34;18.50;;;10.20;;
83807;SDS011;73824;40.292;17.998;2024-02-21T10:20:11;20.50;;;10.30;;
83807;SDS011;73824;40.292;17.998;2024-02-21T10:22:37;17.90;;;9.88;;
83807;SDS011;73824;40.292;17.998;2024-02-21T10:25:08;17.33;;;9.48;;
83807;SDS011;73824;40.292;17.998;2024-02-21T10:27:38;17.38;;;8.93;;
83807;SDS011;73824;40.292;17.998;2024-02-21T10:30:08;17.02;;;8.65;;
83807;SDS011;73824;40.292;17.998;2024-02-21T10:32:51;20.65;;;9.95;;
83807;SDS011;73824;40.292;17.998;2024-02-21T10:37:56;19.40;;;9.50;;
83807;SDS011;73824;40.292;17.998;2024-02-21T10:40:26;15.65;;;9.27;;
83807;SDS011;73824;40.292;17.998;2024-02-21T10:42:59;17.05;;;9.02;;
83807;SDS011;73824;40.292;17.998;2024-02-21T10:45:30;17.45;;;8.73;;
83807;SDS011;73824;40.292;17.998;2024-02-21T10:53:20;16.05;;;7.13;;
83807;SDS011;73824;40.292;17.998;2024-02-21T10:55:55;16.48;;;8.15;;
83807;SDS011;73824;40.292;17.998;2024-02-21T10:58:31;15.70;;;8.02;;
83807;SDS011;73824;40.292;17.998;2024-02-21T11:00:58;16.63;;;8.35;;
83807;SDS011;73824;40.292;17.998;2024-02-21T11:03:23;17.67;;;8.90;;
83807;SDS011;73824;40.292;17.998;2024-02-21T11:05:49;19.42;;;8.50;;
83807;SDS011;73824;40.292;17.998;2024-02-21T11:08:16;18.83;;;9.52;;
83807;SDS011;73824;40.292;17.998;2024-02-21T11:10:45;16.27;;;8.07;;
83807;SDS011;73824;40.292;17.998;2024-02-21T11:13:11;18.13;;;8.75;;
83807;SDS011;73824;40.292;17.998;2024-02-21T11:15:36;19.48;;;9.98;;
83807;SDS011;73824;40.292;17.998;2024-02-21T11:18:02;17.17;;;9.27;;
83807;SDS011;73824;40.292;17.998;2024-02-21T11:23:00;16.40;;;8.35;;
83807;SDS011;73824;40.292;17.998;2024-02-21T11:25:29;15.52;;;7.93;;
83807;SDS011;73824;40.292;17.998;2024-02-21T11:28:04;16.00;;;7.43;;
83807;SDS011;73824;40.292;17.998;2024-02-21T11:30:32;16.58;;;8.05;;
83807;SDS011;73824;40.292;17.998;2024-02-21T11:33:01;19.55;;;8.35;;
83807;SDS011;73824;40.292;17.998;2024-02-21T11:35:32;15.20;;;7.88;;
83807;SDS011;73824;40.292;17.998;2024-02-21T11:38:08;15.55;;;7.95;;
83807;SDS011;73824;40.292;17.998;2024-02-21T11:40:45;15.27;;;8.13;;
83807;SDS011;73824;40.292;17.998;2024-02-21T11:43:11;14.63;;;7.40;;
83807;SDS011;73824;40.292;17.998;2024-02-21T11:45:37;13.93;;;7.20;;
83807;SDS011;73824;40.292;17.998;2024-02-21T11:48:05;14.02;;;7.63;;
83807;SDS011;73824;40.292;17.998;2024-02-21T11:50:31;17.52;;;7.68;;
83807;SDS011;73824;40.292;17.998;2024-02-21T11:52:57;11.17;;;6.37;;
83807;SDS011;73824;40.292;17.998;2024-02-21T11:55:23;14.98;;;7.80;;
83807;SDS011;73824;40.292;17.998;2024-02-21T11:57:49;17.25;;;7.63;;
83807;SDS011;73824;40.292;17.998;2024-02-21T12:00:18;19.38;;;8.85;;
83807;SDS011;73824;40.292;17.998;2024-02-21T12:02:47;13.57;;;7.32;;
83807;SDS011;73824;40.292;17.998;2024-02-21T12:05:13;15.60;;;7.30;;
83807;SDS011;73824;40.292;17.998;2024-02-21T12:07:39;13.07;;;6.70;;
83807;SDS011;73824;40.292;17.998;2024-02-21T12:10:09;17.40;;;7.72;;
83807;SDS011;73824;40.292;17.998;2024-02-21T12:12:35;14.95;;;7.72;;
83807;SDS011;73824;40.292;17.998;2024-02-21T12:15:03;15.48;;;8.68;;
83807;SDS011;73824;40.292;17.998;2024-02-21T12:17:30;19.23;;;11.23;;
83807;SDS011;73824;40.292;17.998;2024-02-21T12:19:57;17.60;;;10.20;;
83807;SDS011;73824;40.292;17.998;2024-02-21T12:22:24;17.70;;;8.30;;
83807;SDS011;73824;40.292;17.998;2024-02-21T12:24:51;14.80;;;6.95;;
83807;SDS011;73824;40.292;17.998;2024-02-21T12:27:16;14.57;;;6.83;;
83807;SDS011;73824;40.292;17.998;2024-02-21T12:29:42;13.97;;;6.63;;
83807;SDS011;73824;40.292;17.998;2024-02-21T12:32:08;16.58;;;8.93;;
83807;SDS011;73824;40.292;17.998;2024-02-21T12:34:33;16.17;;;7.70;;
83807;SDS011;73824;40.292;17.998;2024-02-21T12:36:59;16.90;;;7.60;;
83807;SDS011;73824;40.292;17.998;2024-02-21T12:39:24;16.37;;;7.30;;
83807;SDS011;73824;40.292;17.998;2024-02-21T12:41:53;16.83;;;8.07;;
83807;SDS011;73824;40.292;17.998;2024-02-21T12:44:21;15.10;;;7.68;;
83807;SDS011;73824;40.292;17.998;2024-02-21T12:46:46;17.47;;;6.73;;
83807;SDS011;73824;40.292;17.998;2024-02-21T12:49:16;13.32;;;6.63;;
83807;SDS011;73824;40.292;17.998;2024-02-21T12:51:43;13.32;;;6.47;;
83807;SDS011;73824;40.292;17.998;2024-02-21T12:54:11;14.02;;;7.32;;
83807;SDS011;73824;40.292;17.998;2024-02-21T12:56:37;13.33;;;6.13;;
83807;SDS011;73824;40.292;17.998;2024-02-21T12:59:03;13.30;;;6.78;;
83807;SDS011;73824;40.292;17.998;2024-02-21T13:01:28;13.90;;;7.33;;
83807;SDS011;73824;40.292;17.998;2024-02-21T13:03:54;14.33;;;7.00;;
83807;SDS011;73824;40.292;17.998;2024-02-21T13:06:20;12.35;;;5.68;;
83807;SDS011;73824;40.292;17.998;2024-02-21T13:08:46;16.57;;;7.00;;
83807;SDS011;73824;40.292;17.998;2024-02-21T13:11:12;14.10;;;6.05;;
83807;SDS011;73824;40.292;17.998;2024-02-21T13:13:38;11.75;;;5.78;;
83807;SDS011;73824;40.292;17.998;2024-02-21T13:16:03;13.50;;;5.40;;
83807;SDS011;73824;40.292;17.998;2024-02-21T13:18:29;12.02;;;5.93;;
83807;SDS011;73824;40.292;17.998;2024-02-21T13:20:55;13.07;;;5.90;;
83807;SDS011;73824;40.292;17.998;2024-02-21T13:23:21;14.50;;;6.30;;
83807;SDS011;73824;40.292;17.998;2024-02-21T13:25:46;14.40;;;6.10;;
83807;SDS011;73824;40.292;17.998;2024-02-21T13:28:12;11.73;;;4.90;;
83807;SDS011;73824;40.292;17.998;2024-02-21T13:30:39;13.43;;;5.93;;
83807;SDS011;73824;40.292;17.998;2024-02-21T13:33:08;13.13;;;5.57;;
83807;SDS011;73824;40.292;17.998;2024-02-21T13:35:34;11.40;;;5.40;;
83807;SDS011;73824;40.292;17.998;2024-02-21T13:38:01;14.25;;;5.50;;
83807;SDS011;73824;40.292;17.998;2024-02-21T13:40:28;12.65;;;5.60;;
83807;SDS011;73824;40.292;17.998;2024-02-21T13:42:53;14.37;;;6.57;;
83807;SDS011;73824;40.292;17.998;2024-02-21T13:45:19;11.77;;;5.30;;
83807;SDS011;73824;40.292;17.998;2024-02-21T13:47:44;13.63;;;5.22;;
83807;SDS011;73824;40.292;17.998;2024-02-21T13:50:10;13.70;;;5.40;;
83807;SDS011;73824;40.292;17.998;2024-02-21T13:52:40;10.05;;;5.00;;
83807;SDS011;73824;40.292;17.998;2024-02-21T13:55:05;13.50;;;6.03;;
83807;SDS011;73824;40.292;17.998;2024-02-21T13:57:34;11.75;;;5.38;;
83807;SDS011;73824;40.292;17.998;2024-02-21T14:00:01;10.55;;;4.53;;
83807;SDS011;73824;40.292;17.998;2024-02-21T14:02:28;11.57;;;4.85;;
83807;SDS011;73824;40.292;17.998;2024-02-21T14:04:53;14.00;;;5.80;;
83807;SDS011;73824;40.292;17.998;2024-02-21T14:07:19;10.75;;;4.85;;
83807;SDS011;73824;40.292;17.998;2024-02-21T14:09:45;15.55;;;6.35;;
83807;SDS011;73824;40.292;17.998;2024-02-21T14:12:11;16.47;;;5.90;;
83807;SDS011;73824;40.292;17.998;2024-02-21T14:14:36;15.40;;;6.70;;
83807;SDS011;73824;40.292;17.998;2024-02-21T14:17:03;13.33;;;5.60;;
83807;SDS011;73824;40.292;17.998;2024-02-21T14:19:29;13.80;;;6.65;;
83807;SDS011;73824;40.292;17.998;2024-02-21T14:21:54;14.50;;;6.97;;
83807;SDS011;73824;40.292;17.998;2024-02-21T14:24:20;13.38;;;5.63;;